Time;durP1;ratioP1;P1;durP2;ratioP2;P2;SDS_P1;SDS_P2;PMS_P1;PMS_P2;Temp;Humidity;BMP_temperature;BMP_pressure;BME280_temperature;BME280_humidity;BME280_pressure;Samples;Min_cycle;Max_cycle;Signal;HPM_P1;HPM_P2
2021/10/28 00:13:08;;;;;;;144.03;25.90;;;;;;;3.44;100.00;96809.22;5030669;28;20037;-75
2021/10/28 00:15:39;;;;;;;141.27;25.73;;;;;;;3.47;100.00;96808.19;5051832;28;21099;-75
2021/10/28 00:18:14;;;;;;;53.83;23.77;;;;;;;3.59;100.00;96809.97;5050472;28;20113;-75
2021/10/28 00:20:40;;;;;;;92.77;24.33;;;;;;;3.62;100.00;96811.53;5023419;28;20090;-75
2021/10/28 00:23:08;;;;;;;83.00;23.27;;;;;;;3.58;100.00;96807.47;5039756;28;20381;-75
2021/10/28 00:25:36;;;;;;;51.00;21.87;;;;;;;3.71;100.00;96803.13;5040530;28;20036;-73
2021/10/28 00:28:01;;;;;;;59.30;23.70;;;;;;;3.73;100.00;96796.88;5037328;28;20087;-73
2021/10/28 00:30:28;;;;;;;73.57;23.00;;;;;;;3.66;100.00;96800.00;5033656;28;20060;-74
2021/10/28 00:32:55;;;;;;;151.50;24.13;;;;;;;3.66;100.00;96795.63;5051058;28;20032;-73
2021/10/28 00:35:21;;;;;;;103.30;23.17;;;;;;;3.69;100.00;96790.22;5031806;28;20036;-74
2021/10/28 00:37:47;;;;;;;112.20;22.43;;;;;;;3.70;100.00;96797.09;5015832;28;20472;-74
2021/10/28 00:40:13;;;;;;;96.23;24.73;;;;;;;3.71;100.00;96795.31;5044099;28;20044;-74
2021/10/28 00:42:39;;;;;;;58.47;22.00;;;;;;;3.82;100.00;96785.00;5037264;28;20035;-74
2021/10/28 00:45:07;;;;;;;99.43;23.17;;;;;;;3.81;100.00;96788.53;5040441;28;20448;-74
2021/10/28 00:47:33;;;;;;;133.27;24.23;;;;;;;3.80;100.00;96786.91;5047045;28;20081;-74
2021/10/28 00:50:05;;;;;;;53.37;21.47;;;;;;;3.90;100.00;96787.09;5035869;28;20033;-74
2021/10/28 00:52:33;;;;;;;68.03;22.60;;;;;;;3.96;100.00;96777.09;5052969;28;20036;-73
2021/10/28 00:55:00;;;;;;;82.73;23.57;;;;;;;4.02;100.00;96783.63;5041540;28;20374;-75
2021/10/28 00:57:26;;;;;;;48.43;20.17;;;;;;;4.03;100.00;96787.09;5036299;28;20028;-74
2021/10/28 00:59:51;;;;;;;77.47;22.73;;;;;;;4.03;100.00;96776.69;5033892;28;20478;-74
2021/10/28 01:02:18;;;;;;;139.33;25.50;;;;;;;4.04;100.00;96786.16;5049455;28;20068;-74
2021/10/28 01:04:44;;;;;;;41.73;20.93;;;;;;;4.15;100.00;96786.25;5062203;28;20024;-74
2021/10/28 01:07:09;;;;;;;132.73;24.70;;;;;;;4.10;100.00;96775.34;5035890;28;20044;-74
2021/10/28 01:09:35;;;;;;;45.37;19.80;;;;;;;4.21;100.00;96768.44;5042938;28;20468;-74
2021/10/28 01:12:01;;;;;;;43.37;21.60;;;;;;;4.21;100.00;96776.22;5040190;28;20041;-74
2021/10/28 01:14:27;;;;;;;60.37;22.00;;;;;;;4.22;100.00;96777.06;5055684;28;20092;-74
2021/10/28 01:16:56;;;;;;;62.23;22.90;;;;;;;4.21;100.00;96775.41;5037979;28;20167;-74
2021/10/28 01:19:22;;;;;;;91.97;23.03;;;;;;;4.20;100.00;96771.16;5026621;28;20659;-74
2021/10/28 01:21:49;;;;;;;191.73;26.13;;;;;;;4.16;100.00;96767.94;5017933;28;20041;-74
2021/10/28 01:24:15;;;;;;;161.13;24.97;;;;;;;4.14;100.00;96774.16;5059780;28;20102;-74
2021/10/28 01:26:41;;;;;;;70.00;23.80;;;;;;;4.14;100.00;96769.78;5038225;28;20021;-74
2021/10/28 01:29:07;;;;;;;315.47;34.93;;;;;;;4.06;100.00;96776.44;5043526;28;20033;-74
2021/10/28 01:31:34;;;;;;;125.50;26.83;;;;;;;4.07;100.00;96768.56;5032896;28;20028;-74
2021/10/28 01:34:02;;;;;;;103.33;26.80;;;;;;;4.14;100.00;96761.16;5057502;28;20517;-73
2021/10/28 01:36:28;;;;;;;359.37;36.30;;;;;;;4.11;100.00;96764.78;5047747;28;20032;-74
2021/10/28 01:38:55;;;;;;;192.13;30.77;;;;;;;4.09;100.00;96761.50;5033498;28;20346;-73
2021/10/28 01:41:21;;;;;;;74.30;24.57;;;;;;;4.21;100.00;96760.63;5042011;28;20374;-73
2021/10/28 01:43:47;;;;;;;60.47;24.37;;;;;;;4.24;100.00;96760.41;5058322;28;20099;-73
2021/10/28 01:46:13;;;;;;;70.07;25.13;;;;;;;4.23;100.00;96757.94;5046747;28;20111;-74
2021/10/28 01:48:41;;;;;;;93.13;28.37;;;;;;;4.21;100.00;96757.19;5041154;28;20056;-73
2021/10/28 01:51:12;;;;;;;70.33;25.00;;;;;;;4.31;100.00;96746.97;5037862;28;20121;-74
2021/10/28 01:53:42;;;;;;;219.67;32.67;;;;;;;4.24;100.00;96750.00;5034090;28;20121;-74
2021/10/28 01:56:09;;;;;;;54.77;26.90;;;;;;;4.31;100.00;96750.41;5051629;28;20083;-74
2021/10/28 01:58:35;;;;;;;61.57;25.47;;;;;;;4.33;100.00;96745.91;5036021;28;20023;-74
2021/10/28 02:01:03;;;;;;;53.93;26.47;;;;;;;4.43;100.00;96748.72;5052749;28;20100;-74
2021/10/28 02:03:29;;;;;;;39.00;24.57;;;;;;;4.40;100.00;96744.53;5049255;28;20042;-74
2021/10/28 02:05:56;;;;;;;96.03;25.97;;;;;;;4.43;100.00;96744.31;5043804;28;20382;-74
2021/10/28 02:08:23;;;;;;;45.63;23.37;;;;;;;4.47;100.00;96745.78;5020304;28;20021;-74
2021/10/28 02:10:53;;;;;;;44.20;24.77;;;;;;;4.52;100.00;96740.22;5055179;28;20566;-74
2021/10/28 02:13:20;;;;;;;72.03;25.07;;;;;;;4.48;100.00;96729.19;5047283;28;20036;-74
2021/10/28 02:15:46;;;;;;;53.27;25.10;;;;;;;4.59;100.00;96735.41;5054261;28;20033;-74
2021/10/28 02:18:12;;;;;;;132.43;26.37;;;;;;;4.52;100.00;96732.41;5029195;28;20095;-74
2021/10/28 02:20:38;;;;;;;39.57;23.33;;;;;;;4.56;100.00;96727.81;5059985;28;20021;-74
2021/10/28 02:23:09;;;;;;;42.70;22.87;;;;;;;4.55;100.00;96728.75;5031932;28;20037;-74
2021/10/28 02:25:36;;;;;;;62.30;22.43;;;;;;;4.55;100.00;96729.59;5037957;28;20116;-74
2021/10/28 02:28:02;;;;;;;134.67;24.87;;;;;;;4.49;100.00;96736.09;5038737;28;20105;-74
2021/10/28 02:30:28;;;;;;;74.70;23.77;;;;;;;4.55;100.00;96729.59;5049531;28;20040;-74
2021/10/28 02:32:54;;;;;;;35.57;22.27;;;;;;;4.65;100.00;96727.16;5041593;28;20430;-74
2021/10/28 02:35:20;;;;;;;172.83;27.10;;;;;;;4.53;100.00;96741.03;5055277;28;20068;-74
2021/10/28 02:37:46;;;;;;;33.63;20.37;;;;;;;4.73;100.00;96730.06;5043694;28;20029;-74
2021/10/28 02:40:13;;;;;;;36.23;22.03;;;;;;;4.79;100.00;96733.97;5055486;28;20498;-74
2021/10/28 02:42:39;;;;;;;77.97;23.03;;;;;;;4.58;100.00;96738.97;5033131;28;20558;-74
2021/10/28 02:45:07;;;;;;;51.10;21.27;;;;;;;4.64;100.00;96735.91;5039067;28;20047;-74
2021/10/28 02:47:33;;;;;;;49.43;22.50;;;;;;;4.58;100.00;96737.19;5043352;28;20040;-74
2021/10/28 02:49:59;;;;;;;86.37;23.63;;;;;;;4.47;100.00;96730.16;5033141;28;20036;-74
2021/10/28 02:52:25;;;;;;;37.13;22.37;;;;;;;4.37;100.00;96731.75;5040103;28;20029;-74
2021/10/28 02:54:54;;;;;;;32.93;20.60;;;;;;;4.53;100.00;96741.03;5020455;28;20033;-74
2021/10/28 02:57:20;;;;;;;33.03;21.70;;;;;;;4.57;100.00;96729.50;5051232;28;20071;-74
2021/10/28 02:59:46;;;;;;;34.57;21.37;;;;;;;4.66;100.00;96728.81;5032882;28;20060;-74
2021/10/28 03:02:12;;;;;;;32.57;20.83;;;;;;;4.60;100.00;96734.50;5057720;28;20455;-74
2021/10/28 03:04:38;;;;;;;32.00;19.97;;;;;;;4.64;100.00;96733.31;5050933;28;20397;-74
2021/10/28 03:07:04;;;;;;;34.77;21.33;;;;;;;4.60;100.00;96731.88;5041878;28;20051;-74
2021/10/28 03:09:30;;;;;;;32.37;20.03;;;;;;;4.60;100.00;96730.09;5017258;28;20025;-75
2021/10/28 03:11:58;;;;;;;34.07;20.77;;;;;;;4.67;100.00;96730.50;5049222;28;20667;-74
2021/10/28 03:27:47;;;;;;;31.50;18.10;;;;;;;4.86;100.00;96722.16;5057540;28;20116;-74
2021/10/28 03:30:13;;;;;;;31.43;20.00;;;;;;;4.69;100.00;96729.44;5032497;28;20033;-74
2021/10/28 03:32:40;;;;;;;28.70;18.50;;;;;;;4.76;100.00;96727.19;5060470;28;20107;-74
2021/10/28 03:35:10;;;;;;;28.10;18.73;;;;;;;4.71;100.00;96731.94;5065409;28;20051;-75
2021/10/28 03:37:48;;;;;;;29.40;19.03;;;;;;;4.74;100.00;96731.72;5034569;28;20326;-74
2021/10/28 03:43:12;;;;;;;30.97;19.20;;;;;;;4.78;100.00;96721.91;5054093;28;20150;-74
2021/10/28 03:48:44;;;;;;;31.37;20.17;;;;;;;4.92;100.00;96716.50;5046771;28;20032;-74
2021/10/28 04:17:54;;;;;;;36.47;20.43;;;;;;;4.87;100.00;96716.84;5065347;28;20485;-73
2021/10/28 04:31:03;;;;;;;41.90;24.90;;;;;;;4.94;100.00;96720.66;5044227;28;20041;-74
2021/10/28 04:33:29;;;;;;;41.73;23.43;;;;;;;4.98;100.00;96713.44;5063588;28;20403;-74
2021/10/28 04:35:55;;;;;;;46.03;23.50;;;;;;;5.00;100.00;96713.31;5064950;28;20028;-74
2021/10/28 04:38:21;;;;;;;41.67;23.97;;;;;;;5.04;100.00;96710.41;5045137;28;20036;-74
2021/10/28 04:40:47;;;;;;;40.43;23.50;;;;;;;5.02;100.00;96709.66;5070132;28;20077;-74
2021/10/28 04:43:13;;;;;;;44.73;23.37;;;;;;;5.18;100.00;96712.81;5037932;28;20447;-74
2021/10/28 04:45:39;;;;;;;44.07;24.20;;;;;;;5.17;100.00;96713.75;5043255;28;20032;-74
2021/10/28 04:48:10;;;;;;;41.60;22.27;;;;;;;5.22;100.00;96710.78;5042869;28;20029;-74
2021/10/28 04:50:36;;;;;;;45.13;25.63;;;;;;;5.20;100.00;96712.72;5056962;28;20032;-74
2021/10/28 04:53:02;;;;;;;43.70;24.90;;;;;;;5.29;100.00;96713.78;5032400;28;20044;-74
2021/10/28 04:55:28;;;;;;;46.90;25.47;;;;;;;5.27;100.00;96713.91;5067133;28;20063;-74
2021/10/28 04:57:53;;;;;;;45.67;25.83;;;;;;;5.35;100.00;96706.31;5024150;28;20048;-75
2021/10/28 05:00:19;;;;;;;54.87;26.17;;;;;;;5.48;100.00;96705.41;5039419;28;20063;-74
2021/10/28 05:02:45;;;;;;;54.40;27.37;;;;;;;5.40;100.00;96698.19;5059476;28;20037;-74
2021/10/28 05:05:11;;;;;;;55.10;27.43;;;;;;;5.46;100.00;96696.84;5046149;28;20032;-73
2021/10/28 05:07:36;;;;;;;49.60;25.90;;;;;;;5.39;100.00;96699.94;5048295;28;20021;-74
2021/10/28 05:10:03;;;;;;;54.97;26.30;;;;;;;5.49;100.00;96701.84;5054911;28;20037;-74
2021/10/28 05:12:29;;;;;;;61.63;28.80;;;;;;;5.49;100.00;96694.03;5041666;28;20710;-74
2021/10/28 05:14:55;;;;;;;56.73;29.20;;;;;;;5.56;100.00;96693.44;5060342;28;20036;-73
2021/10/28 05:17:21;;;;;;;53.23;28.20;;;;;;;5.50;100.00;96693.06;5036248;28;20037;-74
2021/10/28 05:19:47;;;;;;;53.27;27.47;;;;;;;5.60;100.00;96684.44;5045234;28;20123;-73
2021/10/28 05:22:13;;;;;;;56.53;28.90;;;;;;;5.55;100.00;96686.56;5065009;28;20116;-75
2021/10/28 05:24:39;;;;;;;59.47;28.43;;;;;;;5.62;100.00;96687.75;5022331;28;20036;-74
2021/10/28 05:27:05;;;;;;;59.10;27.67;;;;;;;5.60;100.00;96691.41;5037921;28;20393;-74
2021/10/28 05:29:30;;;;;;;51.60;26.30;;;;;;;5.62;100.00;96689.53;5024089;28;20410;-74
2021/10/28 05:31:56;;;;;;;56.97;27.83;;;;;;;5.59;100.00;96687.16;5045579;28;20039;-74
2021/10/28 05:34:22;;;;;;;62.30;28.73;;;;;;;5.58;100.00;96685.50;5039153;28;20572;-75
2021/10/28 05:36:49;;;;;;;52.93;26.73;;;;;;;5.58;100.00;96685.50;5036381;28;20033;-74
2021/10/28 05:39:15;;;;;;;50.90;26.40;;;;;;;5.60;100.00;96678.38;5028933;28;20036;-74
2021/10/28 05:41:40;;;;;;;52.73;27.30;;;;;;;5.60;100.00;96681.84;5042320;28;20052;-74
2021/10/28 05:44:06;;;;;;;52.07;25.93;;;;;;;5.56;100.00;96685.59;5055384;28;20356;-74
2021/10/28 05:46:32;;;;;;;53.53;27.07;;;;;;;5.54;100.00;96684.09;5038721;28;20048;-74
2021/10/28 05:48:58;;;;;;;55.47;28.97;;;;;;;5.54;100.00;96684.09;5020318;28;20076;-74
2021/10/28 05:51:27;;;;;;;52.57;26.10;;;;;;;5.54;100.00;96682.28;5061574;28;20100;-74
2021/10/28 05:53:52;;;;;;;56.07;27.07;;;;;;;5.55;100.00;96675.31;5047293;28;20028;-74
2021/10/28 05:56:18;;;;;;;57.47;28.97;;;;;;;5.53;100.00;96678.00;5042009;28;20029;-73
2021/10/28 05:58:44;;;;;;;60.37;30.47;;;;;;;5.58;100.00;96675.06;5037001;28;20032;-73
2021/10/28 06:01:10;;;;;;;59.07;30.77;;;;;;;5.64;100.00;96677.22;5056891;28;20379;-73
2021/10/28 06:03:37;;;;;;;61.83;29.80;;;;;;;5.62;100.00;96672.09;5061546;28;20749;-74
2021/10/28 06:06:04;;;;;;;58.53;30.13;;;;;;;5.65;100.00;96677.09;5039862;28;20087;-74
2021/10/28 06:08:31;;;;;;;59.47;29.67;;;;;;;5.71;100.00;96670.56;5043175;28;20064;-73
2021/10/28 06:10:56;;;;;;;58.77;29.53;;;;;;;5.72;100.00;96672.22;5041163;28;20032;-73
2021/10/28 06:13:23;;;;;;;54.87;29.83;;;;;;;5.72;100.00;96677.44;5054947;28;20094;-73
2021/10/28 06:15:49;;;;;;;56.57;29.53;;;;;;;5.82;100.00;96673.16;5041318;28;20634;-73
2021/10/28 06:20:41;;;;;;;61.60;33.30;;;;;;;5.83;100.00;96674.00;5059832;28;20021;-74
2021/10/28 06:23:07;;;;;;;59.27;29.53;;;;;;;5.84;100.00;96665.22;5068225;28;20032;-73
2021/10/28 06:25:33;;;;;;;59.13;29.63;;;;;;;5.82;100.00;96661.91;5054452;28;20844;-73
2021/10/28 06:28:01;;;;;;;61.87;30.83;;;;;;;5.88;100.00;96671.88;5036080;28;20064;-74
2021/10/28 06:30:26;;;;;;;54.10;28.67;;;;;;;5.81;100.00;96666.28;5038149;28;20036;-74
2021/10/28 06:32:55;;;;;;;53.50;29.07;;;;;;;5.87;100.00;96662.38;5058827;28;20046;-73
2021/10/28 06:35:21;;;;;;;56.07;28.80;;;;;;;5.94;100.00;96670.59;5058253;28;20076;-73
2021/10/28 06:37:50;;;;;;;59.90;33.47;;;;;;;5.90;100.00;96669.94;5044018;28;20032;-73
2021/10/28 06:40:18;;;;;;;64.53;31.17;;;;;;;5.98;100.00;96666.78;5046958;28;20028;-72
2021/10/28 06:42:45;;;;;;;62.23;31.40;;;;;;;5.99;100.00;96664.06;5058831;28;20033;-74
2021/10/28 06:45:11;;;;;;;58.97;30.73;;;;;;;6.00;100.00;96659.66;5051238;28;20355;-74
2021/10/28 06:47:37;;;;;;;61.70;32.50;;;;;;;6.04;100.00;96668.94;5020322;28;20032;-74
2021/10/28 06:50:11;;;;;;;60.70;32.33;;;;;;;6.09;100.00;96658.94;5035198;28;20024;-74
2021/10/28 06:53:09;;;;;;;59.87;29.90;;;;;;;6.11;100.00;96664.88;5061089;28;20378;-74
2021/10/28 06:55:46;;;;;;;60.27;30.20;;;;;;;6.11;100.00;96670.94;5036308;28;20857;-74
2021/10/28 07:03:28;;;;;;;57.67;30.07;;;;;;;6.23;100.00;96676.94;5036753;28;20179;-73
2021/10/28 07:05:58;;;;;;;52.13;29.53;;;;;;;6.27;100.00;96667.09;5057060;28;20020;-74
2021/10/28 07:08:24;;;;;;;52.93;29.60;;;;;;;6.32;100.00;96673.63;5061740;28;20089;-74
2021/10/28 07:10:54;;;;;;;54.37;29.83;;;;;;;6.36;100.00;96666.38;5051295;28;20044;-74
2021/10/28 07:13:24;;;;;;;49.47;29.00;;;;;;;6.38;100.00;96678.34;5035021;28;20063;-74
2021/10/28 07:16:04;;;;;;;41.93;25.80;;;;;;;6.34;100.00;96673.50;5025191;28;20032;-74
2021/10/28 07:26:49;;;;;;;36.97;22.87;;;;;;;6.46;100.00;96666.47;5040929;28;20037;-74
2021/10/28 08:05:48;;;;;;;25.73;17.00;;;;;;;6.85;100.00;96660.63;5032774;28;20430;-73
2021/10/28 08:21:34;;;;;;;24.67;16.47;;;;;;;7.13;100.00;96655.72;5041906;28;20028;-73
2021/10/28 08:29:32;;;;;;;23.37;15.50;;;;;;;7.05;100.00;96648.53;5052148;28;20036;-73
2021/10/28 08:31:59;;;;;;;25.23;15.97;;;;;;;6.87;100.00;96647.41;5034431;28;20033;-73
2021/10/28 08:34:30;;;;;;;23.43;14.77;;;;;;;7.01;100.00;96646.31;5022158;28;20024;-74
2021/10/28 08:37:37;;;;;;;21.50;14.97;;;;;;;7.07;100.00;96653.59;5057202;28;20025;-74
2021/10/28 08:39:52;;;;;;;22.57;15.10;;;;;;;7.08;100.00;96643.03;5031998;28;20048;-74
2021/10/28 08:42:21;;;;;;;24.90;16.33;;;;;;;7.08;100.00;96644.84;5042583;28;20029;-74
2021/10/28 08:44:49;;;;;;;25.87;15.70;;;;;;;7.00;100.00;96648.06;5035606;28;20036;-73
2021/10/28 08:47:20;;;;;;;25.47;15.30;;;;;;;7.16;100.00;96634.53;5036917;28;20028;-73
2021/10/28 08:50:05;;;;;;;25.23;16.30;;;;;;;7.24;100.00;96637.38;5038004;28;20044;-74
2021/10/28 08:52:48;;;;;;;25.00;16.83;;;;;;;7.19;100.00;96629.06;5024997;28;20035;-74
2021/10/28 08:55:31;;;;;;;25.23;16.05;;;;;;;7.20;100.00;96635.13;5039614;28;20087;-73
2021/10/28 09:26:43;;;;;;;26.50;17.80;;;;;;;7.71;100.00;96614.19;5055221;28;20571;-74
2021/10/28 09:29:38;;;;;;;29.73;17.13;;;;;;;7.75;100.00;96622.59;5021410;28;20702;-74
2021/10/28 09:43:36;;;;;;;25.27;17.13;;;;;;;8.08;100.00;96618.84;5056552;28;20389;-74
2021/10/28 09:51:31;;;;;;;28.70;18.53;;;;;;;8.57;100.00;96611.91;5045915;28;20040;-74
2021/10/28 09:59:42;;;;;;;25.43;16.70;;;;;;;9.00;100.00;96601.94;5063608;28;20478;-74
2021/10/28 10:03:38;;;;;;;30.00;17.83;;;;;;;9.03;100.00;96601.66;5035731;28;20102;-73
2021/10/28 10:05:31;;;;;;;25.63;17.87;;;;;;;9.21;100.00;96602.59;5053877;28;20047;-75
2021/10/28 10:07:58;;;;;;;25.47;18.03;;;;;;;9.31;100.00;96606.00;5038958;28;20610;-75
2021/10/28 10:10:28;;;;;;;26.83;17.83;;;;;;;9.54;100.00;96606.50;5043623;28;20047;-74
2021/10/28 10:12:55;;;;;;;24.60;16.60;;;;;;;9.48;100.00;96609.69;5050231;28;20028;-74
2021/10/28 10:15:21;;;;;;;25.37;16.30;;;;;;;9.62;100.00;96604.00;5052678;28;20115;-74
2021/10/28 10:17:53;;;;;;;26.57;19.00;;;;;;;9.49;100.00;96603.50;5049969;28;20533;-74
2021/10/28 10:20:21;;;;;;;25.70;17.53;;;;;;;9.99;99.91;96599.66;5057188;28;20028;-73
2021/10/28 11:21:46;;;;;;;20.73;16.10;;;;;;;14.66;71.12;96524.06;5037168;28;20037;-74
2021/10/28 12:28:09;;;;;;;17.85;14.40;;;;;;;16.95;61.58;96450.38;5052751;28;20025;-74
2021/10/28 12:53:28;;;;;;;18.50;12.00;;;;;;;17.72;57.56;96419.31;5055178;28;20037;-74
2021/10/28 12:56:25;;;;;;;16.38;13.18;;;;;;;17.01;58.63;96416.91;5031739;28;20465;-74
2021/10/28 13:07:49;;;;;;;14.63;11.30;;;;;;;17.17;57.86;96407.81;5045459;28;20108;-74
2021/10/28 13:48:59;;;;;;;11.07;8.45;;;;;;;16.93;55.18;96369.22;5056886;28;20025;-74
2021/10/28 13:56:32;;;;;;;11.27;7.05;;;;;;;16.82;56.04;96367.13;5037164;28;20037;-75
2021/10/28 13:59:28;;;;;;;10.45;7.32;;;;;;;16.72;55.76;96370.91;5030021;28;20040;-73
2021/10/28 15:29:11;;;;;;;11.75;7.82;;;;;;;13.74;71.29;96344.19;5049825;28;20040;-74
2021/10/28 15:34:34;;;;;;;;;;;;;;;13.40;71.65;96340.09;5035560;28;20408;-74
2021/10/28 15:37:17;;;;;;;11.55;7.65;;;;;;;13.38;71.42;96339.47;5054928;28;20012;-74
2021/10/28 16:22:45;;;;;;;19.97;14.30;;;;;;;10.72;97.66;96357.63;5036711;28;20098;-74
2021/10/28 16:25:11;;;;;;;19.07;14.03;;;;;;;10.58;98.51;96349.34;5043489;28;20529;-74
2021/10/28 16:27:37;;;;;;;26.37;16.57;;;;;;;10.46;100.00;96347.97;5039680;28;20024;-74
2021/10/28 16:30:04;;;;;;;25.30;17.97;;;;;;;10.35;100.00;96351.66;5033247;28;20040;-74
2021/10/28 16:32:31;;;;;;;27.43;20.07;;;;;;;10.21;100.00;96351.38;5038665;28;20385;-74
2021/10/28 16:34:58;;;;;;;28.00;19.57;;;;;;;10.28;100.00;96352.44;5044082;28;20032;-74
2021/10/28 16:37:26;;;;;;;24.60;18.73;;;;;;;10.24;100.00;96348.47;5058939;28;20037;-74
2021/10/28 16:39:52;;;;;;;27.00;18.07;;;;;;;10.12;100.00;96353.94;5059652;28;20016;-74
2021/10/28 16:42:18;;;;;;;25.97;19.43;;;;;;;9.96;100.00;96351.22;5045177;28;20032;-73
2021/10/28 16:44:45;;;;;;;30.33;21.10;;;;;;;9.85;100.00;96351.44;5023782;28;20029;-74
2021/10/28 16:47:13;;;;;;;25.43;19.83;;;;;;;9.68;100.00;96348.69;5018031;28;20052;-74
2021/10/28 16:49:39;;;;;;;35.77;28.43;;;;;;;9.61;100.00;96352.06;5046424;28;20032;-74
2021/10/28 16:52:05;;;;;;;28.60;21.20;;;;;;;9.60;100.00;96353.88;5065200;28;20029;-73
2021/10/28 16:54:32;;;;;;;26.20;20.43;;;;;;;9.52;100.00;96345.06;5052665;28;20019;-73
2021/10/28 16:56:59;;;;;;;27.13;21.50;;;;;;;9.38;100.00;96357.75;5061681;28;20478;-74
2021/10/28 16:59:25;;;;;;;29.70;21.23;;;;;;;9.33;100.00;96346.06;5052316;28;20390;-74
2021/10/28 17:01:53;;;;;;;30.70;22.33;;;;;;;9.24;100.00;96357.44;5041923;28;20041;-73
2021/10/28 17:04:19;;;;;;;27.60;19.97;;;;;;;9.24;100.00;96357.44;5055256;28;20029;-74
2021/10/28 17:06:45;;;;;;;26.80;20.43;;;;;;;9.17;100.00;96363.28;5039982;28;20446;-73
2021/10/28 17:09:11;;;;;;;25.07;19.90;;;;;;;9.23;100.00;96356.63;5042013;28;20033;-74
2021/10/28 17:11:38;;;;;;;26.47;19.53;;;;;;;9.14;100.00;96352.25;5062208;28;20060;-74
2021/10/28 17:14:06;;;;;;;28.63;20.37;;;;;;;9.02;100.00;96356.03;5054208;28;20533;-74
2021/10/28 17:16:33;;;;;;;30.30;22.10;;;;;;;8.89;100.00;96351.16;5041103;28;20104;-74
2021/10/28 17:19:00;;;;;;;30.90;23.30;;;;;;;8.63;100.00;96357.06;5049273;28;20012;-74
2021/10/28 17:21:27;;;;;;;32.90;22.80;;;;;;;8.33;100.00;96357.25;5039190;28;20501;-74
2021/10/28 17:24:03;;;;;;;29.93;22.43;;;;;;;8.23;100.00;96360.72;5037399;28;20409;-74
2021/10/28 17:26:31;;;;;;;29.33;22.33;;;;;;;8.23;100.00;96358.09;5057816;28;20033;-74
2021/10/28 17:29:00;;;;;;;31.43;22.67;;;;;;;7.99;100.00;96365.59;5053866;28;20032;-74
2021/10/28 17:31:32;;;;;;;30.93;23.63;;;;;;;7.97;100.00;96359.66;5047996;28;20032;-74
2021/10/28 17:34:03;;;;;;;31.83;23.83;;;;;;;7.91;100.00;96362.84;5070457;28;20040;-74
2021/10/28 17:36:29;;;;;;;31.07;21.93;;;;;;;7.91;100.00;96361.03;5062062;28;20036;-74
2021/10/28 17:38:54;;;;;;;32.23;22.07;;;;;;;7.97;100.00;96352.63;5061576;28;20025;-73
2021/10/28 17:41:20;;;;;;;30.00;22.63;;;;;;;7.91;100.00;96352.38;5053262;28;20040;-73
2021/10/28 17:43:51;;;;;;;30.50;22.67;;;;;;;7.91;100.00;96357.59;5064620;28;20039;-73
2021/10/28 17:46:17;;;;;;;30.40;22.80;;;;;;;7.85;100.00;96356.38;5057796;28;20112;-73
2021/10/28 17:48:43;;;;;;;36.53;24.70;;;;;;;7.79;100.00;96354.31;5040036;28;20047;-74
2021/10/28 17:51:10;;;;;;;33.47;23.37;;;;;;;7.64;100.00;96358.31;5049914;28;20401;-74
2021/10/28 17:53:36;;;;;;;33.63;24.03;;;;;;;7.51;100.00;96366.44;5062029;28;20088;-74
2021/10/28 17:56:02;;;;;;;33.87;25.17;;;;;;;7.48;100.00;96364.94;5063773;28;20037;-74
2021/10/28 17:58:27;;;;;;;35.83;26.00;;;;;;;7.31;100.00;96366.44;5058109;28;20462;-74
2021/10/28 18:00:53;;;;;;;36.03;26.17;;;;;;;7.29;100.00;96373.56;5060830;28;20527;-74
2021/10/28 18:03:23;;;;;;;40.13;27.03;;;;;;;7.24;100.00;96370.56;5050938;28;20021;-74
2021/10/28 18:05:50;;;;;;;41.90;26.90;;;;;;;7.11;100.00;96372.59;5035115;28;20033;-74
2021/10/28 18:08:16;;;;;;;40.27;26.57;;;;;;;7.07;100.00;96376.41;5048316;28;20059;-74
2021/10/28 18:10:42;;;;;;;34.43;22.13;;;;;;;7.23;100.00;96373.28;5039967;28;20065;-75
2021/10/28 18:13:12;;;;;;;36.53;26.53;;;;;;;7.06;100.00;96372.97;5023747;28;20025;-74
2021/10/28 18:15:39;;;;;;;36.70;24.70;;;;;;;7.24;100.00;96377.53;5073081;28;20085;-74
2021/10/28 18:18:05;;;;;;;33.73;22.90;;;;;;;7.27;100.00;96374.66;5030682;28;20053;-75
2021/10/28 18:20:31;;;;;;;36.83;24.73;;;;;;;7.23;100.00;96368.06;5011494;28;20033;-75
2021/10/28 18:22:57;;;;;;;31.93;23.43;;;;;;;7.37;100.00;96377.31;5033762;28;20026;-74
2021/10/28 18:25:24;;;;;;;34.13;23.57;;;;;;;7.46;100.00;96371.25;5035776;28;20040;-74
2021/10/28 18:27:55;;;;;;;32.63;23.33;;;;;;;7.45;100.00;96382.69;5034527;28;20028;-74
2021/10/28 18:30:24;;;;;;;37.23;24.00;;;;;;;7.17;100.00;96374.66;5049690;28;20551;-73
2021/10/28 18:32:49;;;;;;;38.77;26.37;;;;;;;7.06;100.00;96372.16;5010579;28;20079;-74
2021/10/28 18:35:15;;;;;;;45.73;28.13;;;;;;;7.21;100.00;96376.06;5054030;28;20500;-74
2021/10/28 18:37:42;;;;;;;53.20;32.53;;;;;;;7.33;100.00;96368.91;5063444;28;20020;-74
2021/10/28 18:40:09;;;;;;;52.20;31.90;;;;;;;7.31;100.00;96371.66;5026326;28;20047;-75
2021/10/28 18:42:34;;;;;;;49.67;32.73;;;;;;;7.33;100.00;96377.56;5060349;28;20024;-74
2021/10/28 18:45:02;;;;;;;48.03;31.67;;;;;;;7.56;100.00;96379.94;5028564;28;20044;-75
2021/10/28 18:47:28;;;;;;;52.67;33.00;;;;;;;7.63;100.00;96373.19;5019365;28;20122;-74
2021/10/28 18:49:54;;;;;;;49.83;31.63;;;;;;;7.70;100.00;96365.63;5039272;28;20126;-75
2021/10/28 18:52:20;;;;;;;46.27;29.80;;;;;;;7.81;100.00;96362.84;5032459;28;20115;-74
2021/10/28 18:54:46;;;;;;;40.97;28.90;;;;;;;7.74;100.00;96357.34;5056496;28;20040;-75
2021/10/28 18:57:13;;;;;;;49.93;30.57;;;;;;;7.77;100.00;96357.06;5029324;28;20024;-73
2021/10/28 18:59:40;;;;;;;42.40;29.00;;;;;;;7.80;100.00;96358.59;5034568;28;20122;-74
2021/10/28 19:02:07;;;;;;;46.23;27.93;;;;;;;7.72;100.00;96359.28;5041156;28;20029;-74
2021/10/28 19:04:34;;;;;;;43.97;29.93;;;;;;;7.72;100.00;96353.22;5039568;28;20445;-74
2021/10/28 19:07:00;;;;;;;47.47;29.23;;;;;;;7.68;100.00;96350.06;5056625;28;20028;-74
2021/10/28 19:09:26;;;;;;;48.37;31.47;;;;;;;7.61;100.00;96348.94;5039425;28;20115;-75
2021/10/28 19:11:52;;;;;;;44.63;27.70;;;;;;;7.60;100.00;96342.06;5017069;28;20472;-75
2021/10/28 19:14:18;;;;;;;43.03;28.00;;;;;;;7.54;100.00;96342.59;5045624;28;20029;-75
2021/10/28 19:16:43;;;;;;;46.73;30.90;;;;;;;7.50;100.00;96346.47;5043713;28;20029;-75
2021/10/28 19:19:10;;;;;;;41.27;27.80;;;;;;;7.54;100.00;96337.38;5028894;28;20574;-75
2021/10/28 19:21:36;;;;;;;52.60;32.47;;;;;;;7.45;100.00;96344.28;5063196;28;20027;-75
2021/10/28 19:24:02;;;;;;;49.57;30.43;;;;;;;7.45;100.00;96343.44;5051957;28;20490;-74
2021/10/28 19:26:27;;;;;;;47.23;28.83;;;;;;;7.38;100.00;96335.31;5030061;28;20032;-74
2021/10/28 19:28:53;;;;;;;47.53;31.37;;;;;;;7.37;100.00;96330.22;5031514;28;20037;-74
2021/10/28 19:31:24;;;;;;;44.13;28.03;;;;;;;7.31;100.00;96323.75;5031355;28;20375;-74
2021/10/28 19:33:53;;;;;;;38.80;26.63;;;;;;;7.30;100.00;96328.13;5018501;28;20044;-74
2021/10/28 19:36:52;;;;;;;39.27;27.77;;;;;;;7.25;100.00;96321.69;5029388;28;20020;-75
2021/10/28 19:46:58;;;;;;;47.63;29.63;;;;;;;7.09;100.00;96335.28;5030612;28;20056;-74
2021/10/28 19:49:24;;;;;;;52.60;33.07;;;;;;;7.04;100.00;96321.75;5029319;28;20092;-74
2021/10/28 19:51:51;;;;;;;46.07;30.23;;;;;;;7.07;100.00;96326.72;5035058;28;20501;-74
2021/10/28 19:54:16;;;;;;;48.93;29.93;;;;;;;7.06;100.00;96319.84;5011021;28;20086;-74
2021/10/28 19:56:44;;;;;;;47.50;28.97;;;;;;;7.01;100.00;96322.06;5037459;28;20460;-75
2021/10/28 19:59:13;;;;;;;47.17;29.47;;;;;;;7.04;100.00;96320.00;5037369;28;20032;-74
2021/10/28 20:01:46;;;;;;;47.83;30.17;;;;;;;6.96;100.00;96325.06;5049457;28;20025;-74
2021/10/28 20:20:20;;;;;;;44.30;28.43;;;;;;;6.98;100.00;96333.63;5030782;28;20029;-74
2021/10/28 20:22:48;;;;;;;44.67;28.13;;;;;;;6.96;100.00;96325.06;5046506;28;20037;-75
2021/10/28 20:25:20;;;;;;;39.50;26.17;;;;;;;6.99;100.00;96323.97;5030150;28;20095;-74
2021/10/28 20:27:49;;;;;;;38.80;27.13;;;;;;;6.96;100.00;96319.00;5039911;28;20029;-74